Time,TemperatureF,DewpointF,PressureIn,WindDirection,WindDirectionDegrees,WindSpeedMPH,WindSpeedGustMPH,Humidity,HourlyPrecipIn,Conditions,Clouds,dailyrainin,SoftwareType,DateUTC
2013-01-30 00:01:00,31.5,31.2,29.91,ESE,112,0.0,-999.0,99,-99.99,,,0.00,Acu-Link.com,2013-01-30 05:01:00,
2013-01-30 00:17:00,31.5,31.2,29.91,ESE,112,2.2,-999.0,99,-99.99,,,0.00,Acu-Link.com,2013-01-30 05:17:00,
2013-01-30 00:32:00,31.5,31.2,29.90,SE,135,2.2,-999.0,99,-99.99,,,0.00,Acu-Link.com,2013-01-30 05:32:00,
2013-01-30 00:47:00,31.6,31.4,29.90,South,180,0.0,-999.0,99,-99.99,,,0.07,Acu-Link.com,2013-01-30 05:47:00,
2013-01-30 01:02:00,31.6,31.4,29.90,SSE,157,1.1,-999.0,99,-99.99,,,0.10,Acu-Link.com,2013-01-30 06:02:00,
2013-01-30 01:18:00,31.6,31.4,29.89,East,90,1.6,-999.0,99,-99.99,,,0.15,Acu-Link.com,2013-01-30 06:18:00,
2013-01-30 01:33:00,31.6,31.4,29.89,ESE,112,1.1,-999.0,99,-99.99,,,0.22,Acu-Link.com,2013-01-30 06:33:00,
2013-01-30 01:48:00,31.6,31.4,29.88,ESE,112,2.2,-999.0,99,-99.99,,,0.24,Acu-Link.com,2013-01-30 06:48:00,
2013-01-30 02:03:00,31.6,31.4,29.88,NE,45,1.6,-999.0,99,-99.99,,,0.26,Acu-Link.com,2013-01-30 07:03:00,
2013-01-30 02:18:00,31.6,31.4,29.87,East,90,2.2,-999.0,99,-99.99,,,0.27,Acu-Link.com,2013-01-30 07:18:00,
2013-01-30 02:34:00,31.6,31.4,29.86,SE,135,1.1,-999.0,99,-99.99,,,0.28,Acu-Link.com,2013-01-30 07:34:00,
2013-01-30 02:49:00,31.6,31.4,29.84,SE,135,2.7,-999.0,99,-99.99,,,0.28,Acu-Link.com,2013-01-30 07:49:00,
2013-01-30 03:04:00,31.6,31.4,29.84,SSE,157,0.0,-999.0,99,-99.99,,,0.28,Acu-Link.com,2013-01-30 08:04:00,
2013-01-30 03:19:00,31.6,31.4,29.83,SSE,157,2.2,-999.0,99,-99.99,,,0.29,Acu-Link.com,2013-01-30 08:19:00,
2013-01-30 03:34:00,31.6,31.4,29.82,ESE,112,2.2,-999.0,99,-99.99,,,0.29,Acu-Link.com,2013-01-30 08:34:00,
2013-01-30 03:50:00,31.6,31.4,29.81,WNW,292,0.0,-999.0,99,-99.99,,,0.29,Acu-Link.com,2013-01-30 08:50:00,
2013-01-30 04:15:00,31.6,31.4,29.81,NE,45,1.1,-999.0,99,-99.99,,,0.30,Acu-Link.com,2013-01-30 09:15:00,
2013-01-30 04:30:00,31.6,31.4,29.80,ESE,112,2.2,-999.0,99,-99.99,,,0.30,Acu-Link.com,2013-01-30 09:30:00,
2013-01-30 04:45:00,31.6,31.4,29.79,SE,135,0.0,-999.0,99,-99.99,,,0.31,Acu-Link.com,2013-01-30 09:45:00,
2013-01-30 05:00:00,31.8,31.6,29.77,SSE,157,0.0,-999.0,99,-99.99,,,0.33,Acu-Link.com,2013-01-30 10:00:00,
2013-01-30 05:15:00,31.8,31.6,29.77,ESE,112,0.0,-999.0,99,-99.99,,,0.34,Acu-Link.com,2013-01-30 10:15:00,
2013-01-30 05:30:00,31.8,31.6,29.77,SE,135,0.0,-999.0,99,-99.99,,,0.35,Acu-Link.com,2013-01-30 10:30:00,
2013-01-30 05:46:00,31.8,31.6,29.76,SE,135,0.0,-999.0,99,-99.99,,,0.36,Acu-Link.com,2013-01-30 10:46:00,
2013-01-30 06:01:00,32.0,31.8,29.76,SE,135,0.0,-999.0,99,-99.99,,,0.37,Acu-Link.com,2013-01-30 11:01:00,
2013-01-30 06:16:00,32.0,31.8,29.75,SSE,157,0.0,-999.0,99,-99.99,,,0.37,Acu-Link.com,2013-01-30 11:16:00,
2013-01-30 06:31:00,32.0,31.8,29.75,SW,225,0.0,-999.0,99,-99.99,,,0.41,Acu-Link.com,2013-01-30 11:31:00,
2013-01-30 06:46:00,32.0,31.8,29.74,West,270,0.0,-999.0,99,-99.99,,,0.42,Acu-Link.com,2013-01-30 11:46:00,
2013-01-30 07:02:00,32.0,31.8,29.72,NW,315,0.0,-999.0,99,-99.99,,,0.44,Acu-Link.com,2013-01-30 12:02:00,
2013-01-30 07:17:00,32.0,31.8,29.72,East,90,0.0,-999.0,99,-99.99,,,0.44,Acu-Link.com,2013-01-30 12:17:00,
2013-01-30 07:32:00,32.2,31.9,29.71,WNW,292,0.0,-999.0,99,-99.99,,,0.47,Acu-Link.com,2013-01-30 12:32:00,
2013-01-30 07:47:00,32.4,32.1,29.70,ENE,67,0.0,-999.0,99,-99.99,,,0.48,Acu-Link.com,2013-01-30 12:47:00,
2013-01-30 08:02:00,32.5,32.3,29.69,SE,135,0.0,-999.0,99,-99.99,,,0.49,Acu-Link.com,2013-01-30 13:02:00,
2013-01-30 08:18:00,32.7,32.5,29.68,NNW,337,0.0,-999.0,99,-99.99,,,0.50,Acu-Link.com,2013-01-30 13:18:00,
2013-01-30 08:33:00,32.9,32.7,29.68,NW,315,0.0,-999.0,99,-99.99,,,0.52,Acu-Link.com,2013-01-30 13:33:00,
2013-01-30 08:48:00,32.9,32.7,29.66,NW,315,0.0,-999.0,99,-99.99,,,0.52,Acu-Link.com,2013-01-30 13:48:00,
2013-01-30 09:03:00,33.6,33.4,29.66,SE,135,0.0,-999.0,99,-99.99,,,0.53,Acu-Link.com,2013-01-30 14:03:00,
2013-01-30 09:19:00,34.2,33.9,29.65,South,180,0.0,-999.0,99,-99.99,,,0.54,Acu-Link.com,2013-01-30 14:19:00,
2013-01-30 09:34:00,34.0,33.7,29.64,WNW,292,0.0,-999.0,99,-99.99,,,0.60,Acu-Link.com,2013-01-30 14:34:00,
2013-01-30 09:49:00,34.9,34.6,29.63,WNW,292,0.0,-999.0,99,-99.99,,,0.63,Acu-Link.com,2013-01-30 14:49:00,
2013-01-30 10:04:00,35.6,35.3,29.62,ENE,67,0.0,-999.0,99,-99.99,,,0.68,Acu-Link.com,2013-01-30 15:04:00,
2013-01-30 10:19:00,36.0,35.7,29.62,NW,315,0.0,-999.0,99,-99.99,,,0.80,Acu-Link.com,2013-01-30 15:19:00,
2013-01-30 10:35:00,35.6,35.3,29.61,WNW,292,0.0,-999.0,99,-99.99,,,0.87,Acu-Link.com,2013-01-30 15:35:00,
2013-01-30 10:50:00,36.1,35.9,29.58,West,270,1.6,-999.0,99,-99.99,,,0.93,Acu-Link.com,2013-01-30 15:50:00,
2013-01-30 11:05:00,38.3,38.0,29.57,WNW,292,1.6,-999.0,99,-99.99,,,1.01,Acu-Link.com,2013-01-30 16:05:00,
2013-01-30 11:20:00,39.2,38.9,29.56,WNW,292,1.6,-999.0,99,-99.99,,,1.12,Acu-Link.com,2013-01-30 16:20:00,
2013-01-30 11:35:00,40.5,40.2,29.55,WNW,292,0.0,-999.0,99,-99.99,,,1.32,Acu-Link.com,2013-01-30 16:35:00,
2013-01-30 11:51:00,41.4,41.1,29.52,North,0,1.6,-999.0,99,-99.99,,,1.41,Acu-Link.com,2013-01-30 16:51:00,
2013-01-30 12:06:00,44.2,44.0,29.52,NE,45,0.0,-999.0,99,-99.99,,,1.48,Acu-Link.com,2013-01-30 17:06:00,
2013-01-30 12:21:00,45.3,45.1,29.51,NNE,22,0.0,-999.0,99,-99.99,,,1.61,Acu-Link.com,2013-01-30 17:21:00,
2013-01-30 12:36:00,46.2,46.0,29.49,ENE,67,0.0,-999.0,99,-99.99,,,1.66,Acu-Link.com,2013-01-30 17:36:00,
2013-01-30 12:51:00,47.7,47.4,29.48,NNE,22,0.0,-999.0,99,-99.99,,,1.71,Acu-Link.com,2013-01-30 17:51:00,
2013-01-30 13:07:00,48.7,48.5,29.46,West,270,0.0,-999.0,99,-99.99,,,1.74,Acu-Link.com,2013-01-30 18:07:00,
2013-01-30 13:22:00,49.1,48.8,29.46,ESE,112,0.0,-999.0,99,-99.99,,,1.78,Acu-Link.com,2013-01-30 18:22:00,
2013-01-30 13:37:00,48.4,48.1,29.44,NW,315,0.0,-999.0,99,-99.99,,,1.80,Acu-Link.com,2013-01-30 18:37:00,
2013-01-30 13:52:00,48.7,48.5,29.43,WNW,292,0.0,-999.0,99,-99.99,,,1.80,Acu-Link.com,2013-01-30 18:52:00,
2013-01-30 14:08:00,50.5,50.3,29.42,NW,315,2.7,-999.0,99,-99.99,,,1.80,Acu-Link.com,2013-01-30 19:08:00,
2013-01-30 14:23:00,52.7,52.4,29.42,ESE,112,2.2,-999.0,99,-99.99,,,1.80,Acu-Link.com,2013-01-30 19:23:00,
2013-01-30 14:38:00,54.3,54.0,29.41,ESE,112,1.1,-999.0,99,-99.99,,,1.81,Acu-Link.com,2013-01-30 19:38:00,
2013-01-30 14:53:00,55.2,54.7,29.40,South,180,2.7,-999.0,98,-99.99,,,1.81,Acu-Link.com,2013-01-30 19:53:00,
2013-01-30 15:08:00,55.0,54.2,29.40,SSE,157,5.1,-999.0,97,-99.99,,,1.81,Acu-Link.com,2013-01-30 20:08:00,
2013-01-30 15:24:00,55.2,54.4,29.39,WNW,292,2.7,-999.0,97,-99.99,,,1.81,Acu-Link.com,2013-01-30 20:24:00,
2013-01-30 15:39:00,55.2,54.4,29.39,ENE,67,3.8,-999.0,97,-99.99,,,1.81,Acu-Link.com,2013-01-30 20:39:00,
2013-01-30 15:54:00,55.0,54.2,29.38,SSW,202,5.1,-999.0,97,-99.99,,,1.81,Acu-Link.com,2013-01-30 20:54:00,
2013-01-30 16:09:00,54.5,53.9,29.37,SSE,157,3.1,-999.0,98,-99.99,,,1.81,Acu-Link.com,2013-01-30 21:09:00,
2013-01-30 16:24:00,54.3,53.8,29.38,West,270,1.6,-999.0,98,-99.99,,,1.81,Acu-Link.com,2013-01-30 21:24:00,
2013-01-30 16:40:00,54.1,53.9,29.39,WNW,292,5.8,-999.0,99,-99.99,,,1.81,Acu-Link.com,2013-01-30 21:40:00,
2013-01-30 16:55:00,54.9,54.6,29.39,SSE,157,4.7,-999.0,99,-99.99,,,1.81,Acu-Link.com,2013-01-30 21:55:00,
2013-01-30 17:10:00,55.2,54.9,29.38,NNE,22,2.7,-999.0,99,-99.99,,,1.81,Acu-Link.com,2013-01-30 22:10:00,
2013-01-30 17:25:00,54.3,54.0,29.37,SSE,157,2.2,-999.0,99,-99.99,,,1.81,Acu-Link.com,2013-01-30 22:25:00,
2013-01-30 17:40:00,54.7,54.4,29.36,NE,45,4.7,-999.0,99,-99.99,,,1.81,Acu-Link.com,2013-01-30 22:40:00,
2013-01-30 17:56:00,54.3,54.0,29.35,SSW,202,2.7,-999.0,99,-99.99,,,1.81,Acu-Link.com,2013-01-30 22:56:00,
2013-01-30 18:11:00,55.0,54.8,29.35,SE,135,4.3,-999.0,99,-99.99,,,1.81,Acu-Link.com,2013-01-30 23:11:00,
2013-01-30 18:26:00,54.5,54.2,29.35,ESE,112,3.1,-999.0,99,-99.99,,,1.81,Acu-Link.com,2013-01-30 23:26:00,
2013-01-30 18:41:00,55.0,54.8,29.34,SE,135,4.7,-999.0,99,-99.99,,,1.81,Acu-Link.com,2013-01-30 23:41:00,
2013-01-30 18:57:00,55.2,54.9,29.34,SSE,157,2.7,-999.0,99,-99.99,,,1.81,Acu-Link.com,2013-01-30 23:57:00,
2013-01-30 19:12:00,55.8,55.5,29.34,SSE,157,2.7,-999.0,99,-99.99,,,1.81,Acu-Link.com,2013-01-31 00:12:00,
2013-01-30 19:27:00,55.0,54.8,29.34,ESE,112,3.1,-999.0,99,-99.99,,,1.81,Acu-Link.com,2013-01-31 00:27:00,
2013-01-30 19:42:00,55.8,55.5,29.33,SSW,202,2.7,-999.0,99,-99.99,,,1.81,Acu-Link.com,2013-01-31 00:42:00,
2013-01-30 19:57:00,55.6,55.3,29.33,South,180,3.8,-999.0,99,-99.99,,,1.81,Acu-Link.com,2013-01-31 00:57:00,
2013-01-30 20:13:00,56.5,56.2,29.33,SSW,202,1.6,-999.0,99,-99.99,,,1.81,Acu-Link.com,2013-01-31 01:13:00,
2013-01-30 20:28:00,56.7,56.1,29.31,ESE,112,5.1,-999.0,98,-99.99,,,1.81,Acu-Link.com,2013-01-31 01:28:00,
2013-01-30 20:43:00,56.8,56.0,29.31,SSW,202,5.1,-999.0,97,-99.99,,,1.81,Acu-Link.com,2013-01-31 01:43:00,
2013-01-30 20:58:00,56.5,55.6,29.30,ESE,112,2.7,-999.0,97,-99.99,,,1.81,Acu-Link.com,2013-01-31 01:58:00,
2013-01-30 21:13:00,56.7,55.8,29.30,West,270,4.3,-999.0,97,-99.99,,,1.81,Acu-Link.com,2013-01-31 02:13:00,
2013-01-30 21:29:00,56.5,55.6,29.29,SSE,157,2.2,-999.0,97,-99.99,,,1.81,Acu-Link.com,2013-01-31 02:29:00,
2013-01-30 21:44:00,56.7,55.8,29.29,NNE,22,4.7,-999.0,97,-99.99,,,1.83,Acu-Link.com,2013-01-31 02:44:00,
2013-01-30 21:59:00,56.3,55.5,29.30,ESE,112,4.7,-999.0,97,-99.99,,,1.83,Acu-Link.com,2013-01-31 02:59:00,
2013-01-30 22:14:00,56.1,55.6,29.28,SSW,202,8.3,-999.0,98,-99.99,,,1.83,Acu-Link.com,2013-01-31 03:14:00,
2013-01-30 22:29:00,55.8,55.2,29.28,SE,135,3.1,-999.0,98,-99.99,,,1.83,Acu-Link.com,2013-01-31 03:29:00,
2013-01-30 22:45:00,55.0,54.8,29.27,SSE,157,3.1,-999.0,99,-99.99,,,1.86,Acu-Link.com,2013-01-31 03:45:00,
2013-01-30 23:00:00,54.3,54.0,29.25,South,180,2.7,-999.0,99,-99.99,,,1.89,Acu-Link.com,2013-01-31 04:00:00,
2013-01-30 23:15:00,55.2,54.9,29.24,SSE,157,4.3,-999.0,99,-99.99,,,1.90,Acu-Link.com,2013-01-31 04:15:00,
2013-01-30 23:30:00,54.9,54.6,29.23,SSW,202,1.1,-999.0,99,-99.99,,,1.91,Acu-Link.com,2013-01-31 04:30:00,
2013-01-30 23:46:00,54.7,54.4,29.23,West,270,1.6,-999.0,99,-99.99,,,1.91,Acu-Link.com,2013-01-31 04:46:00,